createdAt,value
2022-11-24T00:02:18.493Z,4.96
2022-11-24T00:04:45.006Z,4.94
2022-11-24T00:07:11.506Z,4.95
2022-11-24T00:09:37.902Z,4.96
2022-11-24T00:12:04.504Z,4.93
2022-11-24T00:14:30.970Z,4.96
2022-11-24T00:16:57.643Z,4.96
2022-11-24T00:19:24.041Z,4.93
2022-11-24T00:21:50.441Z,4.94
2022-11-24T00:24:16.931Z,4.93
2022-11-24T00:26:43.394Z,4.92
2022-11-24T00:29:11.117Z,4.93
2022-11-24T00:31:38.361Z,4.92
2022-11-24T00:34:06.226Z,4.92
2022-11-24T00:36:33.871Z,4.91
2022-11-24T00:39:02.595Z,4.90
2022-11-24T00:41:29.723Z,4.92
2022-11-24T00:43:56.630Z,4.95
2022-11-24T00:46:24.035Z,4.97
2022-11-24T00:48:51.103Z,4.96
2022-11-24T00:51:18.414Z,4.95
2022-11-24T00:53:45.064Z,4.94
2022-11-24T00:56:11.874Z,4.94
2022-11-24T00:58:39.092Z,4.92
2022-11-24T01:01:07.080Z,4.94
2022-11-24T01:03:33.745Z,4.97
2022-11-24T01:06:19.104Z,4.95
2022-11-24T01:08:45.517Z,4.96
2022-11-24T01:11:19.308Z,4.94
2022-11-24T01:13:47.213Z,4.97
2022-11-24T01:16:15.421Z,4.96
2022-11-24T01:18:41.927Z,4.96
2022-11-24T01:21:10.315Z,4.96
2022-11-24T01:23:36.996Z,4.95
2022-11-24T01:26:04.135Z,4.93
2022-11-24T01:28:30.596Z,4.95
2022-11-24T01:30:58.109Z,4.92
2022-11-24T01:33:24.620Z,4.93
2022-11-24T01:35:51.256Z,4.90
2022-11-24T01:38:17.707Z,4.92
2022-11-24T01:40:44.084Z,4.95
2022-11-24T01:43:21.542Z,4.96
2022-11-24T01:45:48.184Z,5.00
2022-11-24T01:48:27.998Z,5.02
2022-11-24T01:51:08.312Z,5.04
2022-11-24T01:53:35.490Z,5.04
2022-11-24T01:56:02.452Z,5.08
2022-11-24T01:58:31.253Z,5.07
2022-11-24T02:00:57.994Z,5.05
2022-11-24T02:03:27.523Z,5.08
2022-11-24T02:06:07.239Z,5.07
2022-11-24T02:08:46.601Z,5.06
2022-11-24T02:11:13.280Z,5.06
2022-11-24T02:13:41.117Z,5.07
2022-11-24T02:16:08.756Z,5.07
2022-11-24T02:18:36.799Z,5.11
2022-11-24T02:21:03.389Z,5.12
2022-11-24T02:23:47.502Z,5.14
2022-11-24T02:26:17.337Z,5.16
2022-11-24T02:28:44.012Z,5.15
2022-11-24T02:31:10.748Z,5.18
2022-11-24T02:33:37.550Z,5.18
2022-11-24T02:36:04.055Z,5.17
2022-11-24T02:38:31.986Z,5.16
2022-11-24T02:40:59.494Z,5.16
2022-11-24T02:43:28.732Z,5.16
2022-11-24T02:45:55.447Z,5.18
2022-11-24T02:48:21.830Z,5.22
2022-11-24T02:50:48.223Z,5.28
2022-11-24T02:53:16.937Z,5.35
2022-11-24T02:55:43.355Z,5.40
2022-11-24T02:58:09.982Z,5.45
2022-11-24T03:00:36.419Z,5.49
2022-11-24T03:03:03.489Z,5.55
2022-11-24T03:05:29.940Z,5.59
2022-11-24T03:07:56.448Z,5.64
2022-11-24T03:10:22.913Z,5.67
2022-11-24T03:12:49.308Z,5.71
2022-11-24T03:15:15.976Z,5.75
2022-11-24T03:17:42.394Z,5.79
2022-11-24T03:20:09.262Z,5.83
2022-11-24T03:22:36.473Z,5.86
2022-11-24T03:25:03.062Z,5.91
2022-11-24T03:27:30.326Z,5.93
2022-11-24T03:29:56.720Z,5.98
2022-11-24T03:32:23.228Z,6.00
2022-11-24T03:34:49.624Z,6.04
2022-11-24T03:37:16.098Z,6.06
2022-11-24T03:39:42.563Z,6.11
2022-11-24T03:42:08.979Z,6.11
2022-11-24T03:44:35.630Z,6.13
2022-11-24T03:47:02.324Z,6.16
2022-11-24T03:49:28.836Z,6.18
2022-11-24T03:51:55.243Z,6.18
2022-11-24T03:54:21.902Z,6.19
2022-11-24T03:56:48.349Z,6.21
2022-11-24T03:59:14.768Z,6.23
2022-11-24T04:01:41.242Z,6.25
2022-11-24T04:04:09.991Z,6.27
2022-11-24T04:06:36.369Z,6.28
2022-11-24T04:09:02.796Z,6.29
2022-11-24T04:11:47.962Z,6.31
2022-11-24T04:14:14.410Z,6.32
2022-11-24T04:16:41.087Z,6.30
2022-11-24T04:19:07.543Z,6.32
2022-11-24T04:21:33.915Z,6.31
2022-11-24T04:24:00.305Z,6.32
2022-11-24T04:26:27.994Z,6.31
2022-11-24T04:28:54.393Z,6.33
2022-11-24T04:31:20.821Z,6.34
2022-11-24T04:33:47.364Z,6.36
2022-11-24T04:36:13.733Z,6.36
2022-11-24T04:39:23.501Z,6.37
2022-11-24T04:41:26.533Z,6.39
2022-11-24T04:43:52.921Z,6.37
2022-11-24T04:46:19.433Z,6.37
2022-11-24T04:48:45.894Z,6.36
2022-11-24T04:51:13.420Z,6.37
2022-11-24T04:53:39.801Z,6.37
2022-11-24T04:56:06.565Z,6.38
2022-11-24T04:58:33.232Z,6.41
2022-11-24T05:00:59.628Z,6.43
2022-11-24T05:03:26.068Z,6.42
2022-11-24T05:05:52.483Z,6.42
2022-11-24T05:08:21.332Z,6.44
2022-11-24T05:10:50.534Z,6.45
2022-11-24T05:13:16.931Z,6.48
2022-11-24T05:15:46.151Z,6.50
2022-11-24T05:18:13.598Z,6.53
2022-11-24T05:20:40.055Z,6.54
2022-11-24T05:23:07.296Z,6.56
2022-11-24T05:25:34.612Z,6.57
2022-11-24T05:28:02.130Z,6.59
2022-11-24T05:30:28.874Z,6.59
2022-11-24T05:32:55.607Z,6.59
2022-11-24T05:35:22.037Z,6.59
2022-11-24T05:37:48.496Z,6.59
2022-11-24T05:40:15.040Z,6.59
2022-11-24T05:42:46.683Z,6.61
2022-11-24T05:45:19.334Z,6.61
2022-11-24T05:47:46.358Z,6.61
2022-11-24T05:50:13.815Z,6.62
2022-11-24T05:52:40.344Z,6.60
2022-11-24T05:55:07.229Z,6.62
2022-11-24T05:57:33.666Z,6.63
2022-11-24T06:00:00.287Z,6.65
2022-11-24T06:02:27.117Z,6.66
2022-11-24T06:04:55.595Z,6.67
2022-11-24T06:07:22.067Z,6.67
2022-11-24T06:09:48.608Z,6.66
2022-11-24T06:12:15.010Z,6.67
2022-11-24T06:14:41.662Z,6.70
2022-11-24T06:17:09.764Z,6.68
2022-11-24T06:19:41.518Z,6.69
2022-11-24T06:22:08.432Z,6.68
2022-11-24T06:24:35.004Z,6.69
2022-11-24T06:27:02.266Z,6.69
2022-11-24T06:29:28.716Z,6.69
2022-11-24T06:31:55.234Z,6.70
2022-11-24T06:34:21.663Z,6.68
2022-11-24T06:36:48.162Z,6.68
2022-11-24T06:39:14.679Z,6.70
2022-11-24T06:41:41.120Z,6.69
2022-11-24T06:44:07.628Z,6.69
2022-11-24T06:46:34.165Z,6.68
2022-11-24T06:49:00.639Z,6.68
2022-11-24T06:51:27.963Z,6.67
2022-11-24T06:53:54.930Z,6.67
2022-11-24T06:56:21.790Z,6.68
2022-11-24T06:58:49.294Z,6.70
2022-11-24T07:01:16.615Z,6.70
2022-11-24T07:03:43.257Z,6.70
2022-11-24T07:06:09.793Z,6.72
2022-11-24T07:08:36.206Z,6.70
2022-11-24T07:11:06.544Z,6.71
2022-11-24T07:13:32.977Z,6.71
2022-11-24T07:15:59.938Z,6.67
2022-11-24T07:18:26.424Z,6.64
2022-11-24T07:20:52.858Z,6.64
2022-11-24T07:23:19.268Z,6.62
2022-11-24T07:25:45.722Z,6.62
2022-11-24T07:28:12.145Z,6.60
2022-11-24T07:30:38.567Z,6.57
2022-11-24T07:33:04.978Z,6.54
2022-11-24T07:35:31.434Z,6.49
2022-11-24T07:37:58.327Z,6.47
2022-11-24T07:40:26.054Z,6.45
2022-11-24T07:42:52.763Z,6.44
2022-11-24T07:45:19.141Z,6.40
2022-11-24T07:47:45.671Z,6.39
2022-11-24T07:50:12.906Z,6.41
2022-11-24T07:52:39.520Z,6.44
2022-11-24T07:55:06.337Z,6.56
2022-11-24T07:57:32.749Z,6.69
2022-11-24T07:59:59.209Z,6.82
2022-11-24T08:02:25.659Z,6.97
2022-11-24T08:04:52.436Z,7.09
2022-11-24T08:07:18.947Z,7.22
2022-11-24T08:09:45.375Z,7.30
2022-11-24T08:12:11.764Z,7.34
2022-11-24T08:14:38.254Z,7.32
2022-11-24T08:17:04.683Z,7.35
2022-11-24T08:19:32.212Z,7.35
2022-11-24T08:21:58.642Z,7.39
2022-11-24T08:24:25.093Z,7.42
2022-11-24T08:26:51.494Z,7.46
2022-11-24T08:29:18.050Z,7.53
2022-11-24T08:31:44.547Z,7.53
2022-11-24T08:34:11.067Z,7.58
2022-11-24T08:36:37.705Z,7.58
2022-11-24T08:39:04.410Z,7.64
2022-11-24T08:41:31.157Z,7.74
2022-11-24T08:43:57.608Z,7.84
2022-11-24T08:46:24.227Z,7.92
2022-11-24T08:48:52.594Z,7.98
2022-11-24T08:51:20.838Z,8.04
2022-11-24T08:53:47.497Z,8.14
2022-11-24T08:56:14.278Z,8.29
2022-11-24T08:58:41.129Z,8.44
2022-11-24T09:01:12.439Z,8.53
2022-11-24T09:03:42.343Z,8.63
2022-11-24T09:06:12.908Z,8.68
2022-11-24T09:08:39.716Z,8.70
2022-11-24T09:11:07.652Z,8.74
2022-11-24T09:13:34.422Z,8.82
2022-11-24T09:16:05.315Z,8.87
2022-11-24T09:18:31.779Z,8.90
2022-11-24T09:21:08.164Z,8.95
2022-11-24T09:23:34.887Z,8.97
2022-11-24T09:26:11.894Z,8.94
2022-11-24T09:28:38.522Z,8.90
2022-11-24T09:31:06.449Z,8.88
2022-11-24T09:33:33.336Z,8.90
2022-11-24T09:36:00.058Z,8.91
2022-11-24T09:38:26.724Z,8.91
2022-11-24T09:40:56.130Z,8.93
2022-11-24T09:43:22.509Z,8.96
2022-11-24T09:46:08.724Z,8.93
2022-11-24T09:48:38.948Z,8.96
2022-11-24T09:51:11.671Z,9.00
2022-11-24T09:53:42.232Z,9.03
2022-11-24T09:56:14.615Z,9.06
2022-11-24T09:58:40.961Z,9.12
2022-11-24T10:01:11.952Z,9.18
2022-11-24T10:03:41.820Z,9.24
2022-11-24T10:06:34.816Z,9.27
2022-11-24T10:09:01.194Z,9.27
2022-11-24T10:11:34.785Z,9.17
2022-11-24T10:14:13.467Z,9.18
2022-11-24T10:16:43.031Z,9.21
2022-11-24T10:19:14.931Z,9.21
2022-11-24T10:21:53.869Z,9.21
2022-11-24T10:24:39.938Z,9.12
2022-11-24T10:27:21.978Z,9.06
2022-11-24T10:29:51.062Z,9.06
2022-11-24T10:32:20.335Z,9.04
2022-11-24T10:34:49.975Z,9.00
2022-11-24T10:37:34.960Z,9.02
2022-11-24T10:40:04.476Z,8.95
2022-11-24T10:42:31.973Z,8.87
2022-11-24T10:44:59.351Z,8.89
2022-11-24T10:47:25.762Z,8.92
2022-11-24T10:49:58.042Z,8.84
2022-11-24T10:52:24.804Z,8.83
2022-11-24T10:54:58.733Z,8.84
2022-11-24T10:57:35.853Z,8.83
2022-11-24T11:00:04.711Z,8.79
2022-11-24T11:02:39.095Z,8.72
2022-11-24T11:05:24.117Z,8.71
2022-11-24T11:07:50.597Z,8.74
2022-11-24T11:10:19.041Z,8.75
2022-11-24T11:12:45.885Z,8.75
2022-11-24T11:15:31.242Z,8.72
2022-11-24T11:17:59.330Z,8.70
2022-11-24T11:20:28.645Z,8.70
2022-11-24T11:22:56.276Z,8.73
2022-11-24T11:25:25.675Z,8.72
2022-11-24T11:28:14.971Z,8.72
2022-11-24T11:31:17.365Z,8.73
2022-11-24T11:34:03.667Z,8.71
2022-11-24T11:36:32.473Z,8.64
2022-11-24T11:38:59.026Z,8.59
2022-11-24T11:41:31.512Z,8.55
2022-11-24T11:44:21.410Z,8.56
2022-11-24T11:46:48.015Z,8.57
2022-11-24T11:49:14.476Z,8.56
2022-11-24T11:51:47.148Z,8.55
2022-11-24T11:54:32.770Z,8.50
2022-11-24T11:57:07.684Z,8.50
2022-11-24T11:59:37.345Z,8.48
2022-11-24T12:02:16.082Z,8.52
2022-11-24T12:04:42.567Z,8.53
2022-11-24T12:07:27.878Z,8.50
2022-11-24T12:10:01.535Z,8.38
2022-11-24T12:12:37.396Z,8.38
2022-11-24T12:15:12.151Z,8.35
2022-11-24T12:17:38.586Z,8.34
2022-11-24T12:20:22.724Z,8.29
2022-11-24T12:22:51.905Z,8.28
2022-11-24T12:25:18.355Z,8.25
2022-11-24T12:27:59.510Z,8.24
2022-11-24T12:30:29.810Z,8.24
2022-11-24T12:33:15.365Z,8.23
2022-11-24T12:35:46.433Z,8.20
2022-11-24T12:38:16.096Z,8.16
2022-11-24T12:40:47.284Z,8.14
2022-11-24T12:43:26.864Z,8.13
2022-11-24T12:46:17.415Z,8.07
2022-11-24T12:48:44.217Z,8.04
2022-11-24T12:51:30.847Z,8.03
2022-11-24T12:53:59.129Z,7.91
2022-11-24T12:56:31.261Z,7.93
2022-11-24T12:59:03.498Z,7.92
2022-11-24T13:01:35.164Z,7.93
2022-11-24T13:04:02.371Z,7.92
2022-11-24T13:06:49.014Z,7.90
2022-11-24T13:09:16.383Z,7.90
2022-11-24T13:11:52.964Z,7.92
2022-11-24T13:14:32.573Z,7.89
2022-11-24T13:19:46.907Z,7.93
2022-11-24T13:22:15.929Z,7.98
2022-11-24T13:24:42.980Z,8.04
2022-11-24T13:27:15.288Z,8.10
2022-11-24T13:29:42.946Z,8.21
2022-11-24T13:32:10.719Z,8.30
2022-11-24T13:34:43.290Z,8.38
2022-11-24T13:37:31.898Z,8.42
2022-11-24T13:40:11.554Z,8.49
2022-11-24T13:42:56.476Z,8.53
2022-11-24T13:45:41.416Z,8.51
2022-11-24T13:48:20.674Z,8.51
2022-11-24T13:50:50.892Z,8.50
2022-11-24T13:53:17.527Z,8.47
2022-11-24T13:55:54.944Z,8.42
2022-11-24T13:58:21.368Z,8.40
2022-11-24T14:01:07.554Z,8.40
2022-11-24T14:04:07.205Z,8.38
2022-11-24T14:06:44.901Z,8.40
2022-11-24T14:09:29.595Z,8.40
2022-11-24T14:12:16.308Z,8.40
2022-11-24T14:14:44.319Z,8.38
2022-11-24T14:17:15.285Z,8.36
2022-11-24T14:19:42.717Z,8.34
2022-11-24T14:22:14.864Z,8.35
2022-11-24T14:24:45.258Z,8.35
2022-11-24T14:27:16.816Z,8.31
2022-11-24T14:29:54.527Z,8.29
2022-11-24T14:32:21.939Z,8.27
2022-11-24T14:34:48.490Z,8.28
2022-11-24T14:37:15.550Z,8.27
2022-11-24T14:39:42.489Z,8.28
2022-11-24T14:42:18.115Z,8.26
2022-11-24T14:44:56.272Z,8.24
2022-11-24T14:47:30.610Z,8.20
2022-11-24T14:50:05.552Z,8.18
2022-11-24T14:52:32.040Z,8.07
2022-11-24T14:55:21.258Z,7.95
2022-11-24T14:57:48.582Z,7.89
2022-11-24T15:00:19.408Z,7.77
2022-11-24T15:02:48.462Z,7.72
2022-11-24T15:05:15.665Z,7.68
2022-11-24T15:07:46.583Z,7.63
2022-11-24T15:10:20.822Z,7.54
2022-11-24T15:13:07.252Z,7.52
2022-11-24T15:15:35.360Z,7.49
2022-11-24T15:18:02.623Z,7.48
2022-11-24T15:20:42.874Z,7.49
2022-11-24T15:23:19.914Z,7.50
2022-11-24T15:25:46.406Z,7.49
2022-11-24T15:28:12.846Z,7.49
2022-11-24T15:30:39.426Z,7.49
2022-11-24T15:33:16.486Z,7.47
2022-11-24T15:35:43.180Z,7.46
2022-11-24T15:38:09.872Z,7.45
2022-11-24T15:40:39.998Z,7.44
2022-11-24T15:43:12.404Z,7.43
2022-11-24T15:45:39.357Z,7.42
2022-11-24T15:48:06.026Z,7.37
2022-11-24T15:50:33.055Z,7.37
2022-11-24T15:53:01.824Z,7.36
2022-11-24T15:55:28.267Z,7.33
2022-11-24T15:57:54.806Z,7.30
2022-11-24T16:00:22.656Z,7.27
2022-11-24T16:02:49.456Z,7.25
2022-11-24T16:05:16.489Z,7.22
2022-11-24T16:07:42.972Z,7.21
2022-11-24T16:10:18.036Z,7.19
2022-11-24T16:12:44.416Z,7.16
2022-11-24T16:15:10.805Z,7.13
2022-11-24T16:17:37.155Z,7.11
2022-11-24T16:20:03.719Z,7.08
2022-11-24T16:22:30.167Z,7.05
2022-11-24T16:24:56.620Z,7.06
2022-11-24T16:27:23.203Z,7.05
2022-11-24T16:29:49.595Z,7.06
2022-11-24T16:32:16.032Z,7.05
2022-11-24T16:34:42.417Z,7.05
2022-11-24T16:37:11.285Z,7.06
2022-11-24T16:39:37.695Z,7.06
2022-11-24T16:42:04.219Z,7.02
2022-11-24T16:44:30.590Z,7.02
2022-11-24T16:46:57.155Z,7.01
2022-11-24T16:49:23.590Z,6.96
2022-11-24T16:51:50.030Z,6.91
2022-11-24T16:54:16.453Z,6.87
2022-11-24T16:56:42.820Z,6.79
2022-11-24T16:59:09.703Z,6.75
2022-11-24T17:01:36.252Z,6.70
2022-11-24T17:04:05.112Z,6.69
2022-11-24T17:06:35.023Z,6.66
2022-11-24T17:09:01.678Z,6.61
2022-11-24T17:11:28.500Z,6.58
2022-11-24T17:13:56.356Z,6.57
2022-11-24T17:16:23.637Z,6.52
2022-11-24T17:18:50.384Z,6.48
2022-11-24T17:21:21.219Z,6.51
2022-11-24T17:23:47.969Z,6.50
2022-11-24T17:26:15.620Z,6.50
2022-11-24T17:28:42.365Z,6.49
2022-11-24T17:31:29.142Z,6.47
2022-11-24T17:33:56.946Z,6.48
2022-11-24T17:36:23.501Z,6.50
2022-11-24T17:38:50.538Z,6.53
2022-11-24T17:41:17.719Z,5.72
2022-11-24T17:43:44.085Z,6.55
2022-11-24T17:46:10.621Z,6.55
2022-11-24T17:48:37.065Z,6.55
2022-11-24T17:51:03.444Z,6.54
2022-11-24T17:53:30.342Z,6.54
2022-11-24T17:56:00.805Z,6.51
2022-11-24T17:58:28.701Z,6.49
2022-11-24T18:00:55.258Z,6.48
2022-11-24T18:03:21.778Z,6.48
2022-11-24T18:05:48.581Z,6.47
2022-11-24T18:08:15.131Z,6.47
2022-11-24T18:10:41.530Z,6.49
2022-11-24T18:13:07.988Z,6.50
2022-11-24T18:15:34.984Z,6.51
2022-11-24T18:18:02.010Z,6.51
2022-11-24T18:20:31.165Z,6.51
2022-11-24T18:23:05.665Z,6.49
2022-11-24T18:25:33.229Z,6.49
2022-11-24T18:27:59.831Z,6.47
2022-11-24T18:30:26.226Z,6.45
2022-11-24T18:32:52.616Z,6.44
2022-11-24T18:35:19.045Z,6.42
2022-11-24T18:37:45.479Z,6.40
2022-11-24T18:40:11.996Z,6.37
2022-11-24T18:42:38.454Z,6.35
2022-11-24T18:45:05.342Z,6.32
2022-11-24T18:47:31.754Z,6.32
2022-11-24T18:50:00.193Z,6.29
2022-11-24T18:52:27.547Z,6.30
2022-11-24T18:54:53.921Z,6.30
2022-11-24T18:57:20.363Z,6.29
2022-11-24T18:59:46.762Z,6.29
2022-11-24T19:02:13.221Z,6.30
2022-11-24T19:04:39.776Z,6.29
2022-11-24T19:07:06.193Z,6.26
2022-11-24T19:09:32.596Z,6.26
2022-11-24T19:11:59.988Z,6.26
2022-11-24T19:14:27.520Z,6.25
2022-11-24T19:16:55.114Z,6.25
2022-11-24T19:19:21.560Z,6.26
2022-11-24T19:21:47.975Z,6.26
2022-11-24T19:24:14.396Z,6.22
2022-11-24T19:26:40.985Z,6.25
2022-11-24T19:29:07.622Z,6.25
2022-11-24T19:31:34.519Z,6.22
2022-11-24T19:34:02.973Z,6.21
2022-11-24T19:36:29.829Z,6.19
2022-11-24T19:38:58.195Z,6.18
2022-11-24T19:41:26.489Z,6.15
2022-11-24T19:43:56.620Z,6.15
2022-11-24T19:46:26.195Z,6.11
2022-11-24T19:48:57.085Z,6.12
2022-11-24T19:51:25.432Z,6.13
2022-11-24T19:53:52.404Z,6.12
2022-11-24T19:56:20.030Z,6.12
2022-11-24T19:58:47.058Z,6.08
2022-11-24T20:01:14.967Z,6.09
2022-11-24T20:03:42.376Z,6.06
2022-11-24T20:06:09.854Z,6.06
2022-11-24T20:08:36.933Z,6.04
2022-11-24T20:11:07.661Z,6.02
2022-11-24T20:13:34.634Z,5.96
2022-11-24T20:16:05.395Z,5.95
2022-11-24T20:18:35.229Z,5.94
2022-11-24T20:21:05.049Z,5.93
2022-11-24T20:23:31.523Z,5.95
2022-11-24T20:26:04.245Z,5.95
2022-11-24T20:28:30.873Z,5.95
2022-11-24T20:31:00.546Z,5.96
2022-11-24T20:33:27.538Z,5.96
2022-11-24T20:35:53.926Z,5.94
2022-11-24T20:38:20.420Z,5.95
2022-11-24T20:40:46.795Z,5.96
2022-11-24T20:43:14.671Z,5.98
2022-11-24T20:45:41.161Z,5.97
2022-11-24T20:48:07.646Z,5.97
2022-11-24T20:50:35.847Z,5.98
2022-11-24T20:53:02.553Z,5.96
2022-11-24T20:55:28.939Z,5.94
2022-11-24T20:57:55.352Z,5.95
2022-11-24T21:00:21.815Z,5.94
2022-11-24T21:02:48.672Z,5.91
2022-11-24T21:05:15.185Z,5.88
2022-11-24T21:07:41.849Z,5.84
2022-11-24T21:10:08.447Z,5.81
2022-11-24T21:12:34.859Z,5.78
2022-11-24T21:15:01.332Z,5.75
2022-11-24T21:17:28.403Z,5.74
2022-11-24T21:19:59.677Z,5.72
2022-11-24T21:22:28.465Z,5.71
2022-11-24T21:24:54.938Z,5.70
2022-11-24T21:27:21.297Z,5.67
2022-11-24T21:29:47.730Z,5.66
2022-11-24T21:32:14.105Z,5.62
2022-11-24T21:34:40.545Z,5.59
2022-11-24T21:37:07.262Z,5.58
2022-11-24T21:39:34.375Z,5.57
2022-11-24T21:42:00.812Z,5.55
2022-11-24T21:44:29.569Z,5.55
2022-11-24T21:46:56.398Z,5.57
2022-11-24T21:49:22.861Z,5.55
2022-11-24T21:51:55.182Z,5.57
2022-11-24T21:54:22.186Z,5.56
2022-11-24T21:56:48.608Z,5.57
2022-11-24T21:59:14.995Z,5.57
2022-11-24T22:01:41.682Z,5.56
2022-11-24T22:04:09.143Z,5.54
2022-11-24T22:06:35.522Z,5.53
2022-11-24T22:09:01.990Z,5.54
2022-11-24T22:11:28.411Z,5.52
2022-11-24T22:13:54.863Z,5.53
2022-11-24T22:16:22.534Z,5.53
2022-11-24T22:18:49.506Z,5.50
2022-11-24T22:21:20.302Z,5.50
2022-11-24T22:23:50.346Z,5.46
2022-11-24T22:26:18.279Z,5.43
2022-11-24T22:28:44.974Z,5.42
2022-11-24T22:31:21.790Z,5.39
2022-11-24T22:33:48.427Z,5.39
2022-11-24T22:36:15.732Z,5.37
2022-11-24T22:38:42.951Z,5.34
2022-11-24T22:41:11.041Z,5.26
2022-11-24T22:43:38.612Z,5.17
2022-11-24T22:46:10.944Z,5.07
2022-11-24T22:48:38.110Z,4.95
2022-11-24T22:51:08.767Z,4.86
2022-11-24T22:53:35.230Z,4.76
2022-11-24T22:56:06.072Z,4.66
2022-11-24T22:58:33.267Z,4.56
2022-11-24T23:01:06.222Z,4.45
2022-11-24T23:03:36.099Z,4.35
2022-11-24T23:06:04.562Z,4.23
2022-11-24T23:08:34.211Z,4.12
2022-11-24T23:11:01.280Z,4.04
2022-11-24T23:13:27.835Z,3.95
2022-11-24T23:15:59.126Z,3.87
2022-11-24T23:18:25.566Z,3.78
2022-11-24T23:20:51.957Z,3.70
2022-11-24T23:23:18.395Z,3.62
2022-11-24T23:25:44.851Z,3.54
2022-11-24T23:28:11.253Z,3.49
2022-11-24T23:30:37.733Z,3.44
2022-11-24T23:33:04.219Z,3.41
2022-11-24T23:35:30.607Z,3.38
2022-11-24T23:38:07.313Z,3.34
2022-11-24T23:40:34.391Z,3.30
2022-11-24T23:43:00.960Z,3.27
2022-11-24T23:45:27.420Z,3.24
2022-11-24T23:47:53.979Z,3.23
2022-11-24T23:50:20.457Z,3.20
2022-11-24T23:52:46.791Z,3.22
2022-11-24T23:55:13.246Z,3.22
2022-11-24T23:57:39.735Z,3.21
